Time Latitude Longitude Accuracy (66% radius in meters) Altitude (meters) Speed (km/hour) Bearing (degrees) Battery (%) GPS flag
07:04:54 57.208758 60.115875 4 320 2.1488833427429 205.19999694824 94 1 delete
07:04:50 57.208848 60.115953 4 319 2.9552664756775 218 94 1 delete
07:04:46 57.208923 60.116101 3 318 3.3562626838684 230.39999389648 94 1 delete
07:04:43 57.208984 60.116225 3 318 2.4253866672516 229.89999389648 94 1 delete
07:04:37 57.209088 60.116255 3 322 3.8607771396637 229.39999389648 94 1 delete
07:04:34 57.209118 60.116474 3 326 4.2919692993164 285.39999389648 94 1 delete
07:04:31 57.209097 60.116685 3 327 5.764997959137 296 94 1 delete
07:04:29 57.209073 60.116866 3 329 5.007643699646 300.39999389648 94 1 delete
07:04:26 57.209072 60.117105 3 335 2.4044125080109 224.30000305176 94 1 delete
07:04:19 57.209165 60.117130 3 329 1.8001388311386 132.19999694824 94 1 delete
07:04:13 57.209254 60.117090 3 329 1.2842507362366 181 94 1 delete
07:04:08 57.209345 60.117118 4 326 2.2318825721741 181.80000305176 94 1 delete
07:04:04 57.209439 60.117132 3 324 2.2792322635651 187.5 94 1 delete
07:03:58 57.209546 60.117176 3 323 2.0651876926422 179.69999694824 94 1 delete
07:03:53 57.209642 60.117207 4 319 2.8160254955292 194.69999694824 94 1 delete
07:03:50 57.209740 60.117264 3 320 3.2378389835358 197.69999694824 94 1 delete
07:03:46 57.209842 60.117363 3 318 1.6200000047684 207.80000305176 94 1 delete
07:03:36 57.209934 60.117396 3 318 2.1799540519714 183.30000305176 94 1 delete
07:03:31 57.210030 60.117439 3 317 2.2743129730225 191.10000610352 94 1 delete
07:03:27 57.210137 60.117492 4 319 2.1540658473969 194.80000305176 94 1 delete
07:03:22 57.210238 60.117569 3 318 2.5700778961182 199.5 94 1 delete
07:03:16 57.210335 60.117750 4 321 3.0686316490173 202.39999389648 94 1 delete
07:03:13 57.210415 60.117876 4 321 3.0598363876343 213.60000610352 94 1 delete
07:03:10 57.210487 60.117985 4 320 3.1947612762451 212.30000305176 94 1 delete
07:03:07 57.210588 60.118092 3 322 2.7225906848907 207.60000610352 94 1 delete
07:03:03 57.210669 60.118228 4 319 2.8809199333191 197.69999694824 94 1 delete
07:02:59 57.210758 60.118331 4 316 2.9541833400726 213.89999389648 94 1 delete
07:02:55 57.210853 60.118449 3 313 3.2322282791138 211 94 1 delete
07:02:51 57.210946 60.118522 3 312 2.0421557426453 185 94 1 delete
07:02:44 57.211045 60.118543 3 308 1.5016324520111 149.30000305176 94 1 delete
07:02:37 57.211141 60.118470 3 311 0.93493318557739 140.89999389648 94 1 delete
07:02:34 57.211225 60.118526 3 319 2.5178163051605 229.30000305176 94 1 delete
07:02:30 57.211282 60.118657 4 316 2.0259566307068 202.60000610352 94 1 delete
07:02:26 57.211362 60.118787 4 311 2.7435743808746 201.10000610352 94 1 delete
07:02:22 57.211446 60.118873 4 311 2.2400224208832 212.10000610352 94 1 delete
07:02:18 57.211534 60.118918 3 311 1.6451443433762 189.89999389648 94 1 delete
07:02:10 57.211629 60.118914 3 308 1.0916501283646 143.30000305176 94 1 delete
07:02:04 57.211700 60.118807 3 307 1.4916433095932 145.39999389648 94 1 delete
07:01:52 57.211773 60.118687 3 306 1.3550646305084 156.30000305176 94 1 delete
07:01:46 57.211851 60.118572 3 306 1.3713132143021 138 94 1 delete
07:01:38 57.211924 60.118441 3 303 1.6095341444016 126 94 1 delete
07:01:32 57.211997 60.118329 3 304 1.5430165529251 116.59999847412 94 1 delete
07:01:25 57.212091 60.118300 3 305 1.8250752687454 208.89999389648 94 1 delete
07:01:18 57.212193 60.118343 3 302 1.8099999427795 187.30000305176 94 1 delete
07:01:14 57.212287 60.118380 3 305 1.4187319278717 185.5 94 1 delete
07:01:08 57.212389 60.118381 3 304 2.3820159435272 185.5 94 1 delete
07:01:04 57.212483 60.118445 3 301 3.3008029460907 205.30000305176 94 1 delete
07:01:00 57.212585 60.118451 3 301 1.6457520723343 192.19999694824 94 1 delete
07:00:53 57.212677 60.118351 3 299 1.3319535255432 136.30000305176 94 1 delete
07:00:46 57.212724 60.118176 3 298 1.5344380140305 109.30000305176 94 1 delete